Bucureşti, România

05:45 PM EEST on iulie 29, 2014 (GMT +0300)
Sos. Gh.I.Sisesti (ISECTOR12) Elev 305 ft | 44.50 °N, 26.04 °E | Change Station

Current weather conditions updated 4 seconds ago

Clear
Cer senin
80.1 °F
Feels Like 78 °F
N
0.0
Vânt variabil Vânt from nord
Gusts 0.7 mph

Tomorrow is forecast to be Much Warmer than today.

astăzi
High -- | Low -- °F
--% Chance of Precip.
Ieri
High -- | Low -- °F
Precip. -- inch
5:58 AM 8:44 PM
Semilună în creştere, 6% visible
Presiunea 29.86 inch
Vizibilitatea -9999.0 mile
Nori
Indicele de căldură 78 °F
Punctul de rouă 23 °F
Umiditatea 12%
Precipitaţii 0.00 inch
Adâncimea zăpezii Not available.
UV Not available.
Pollen Not available.
Calitatea aerului Not available.
Flu Activity Not available.
METAR LRBS 291430Z VRB02KT CAVOK 26/19 Q1011 R07/19//95 NOSIG

More Conditions Fewer Conditions

Presiunea 29.86 inch
Vizibilitatea -9999.0 mile
Nori
Indicele de căldură 78 °F
Punctul de rouă 23 °F
Umiditatea 12%
Precipitaţii 0.00 inch
Adâncimea zăpezii Not available.
UV Not available.
Pollen Not available.
Calitatea aerului Not available.
Flu Activity Not available.
METAR LRBS 291430Z VRB02KT CAVOK 26/19 Q1011 R07/19//95 NOSIG

More Conditions Fewer Conditions

10-Day Weather Forecast

Almanac

Astronomie

Jul. 29, 2014 Răsărit Apus
Timpul Actual 5:58 AM EEST 8:44 PM EEST
Crepusculul Civil 5:24 AM EEST 9:18 PM EEST
Crepusculul nautic 4:42 AM EEST 10:00 PM EEST
Răsărit Astronomic 3:52 AM EEST 10:50 PM EEST
Luna 8:25 AM EEST 9:38 PM EEST
Durata zilei lumină 15h 53m
Lungimea zilei
14h 46m
Tomorrow will be 2m 16s shorter.
Semilună în creştere, 6% of the Moon is Illuminated
astăzi
Semilună în creştere
Aug 3
Primul pătrar
Aug 10
Lună plină
Aug 17
Ultimul pătrar
Aug 25
New

Extremele de azi

Country Highs Country Lows

Community

WunderPhotos

Upload Photos

1,738,749 photos uploaded!

Nearby

Calitatea aerului

Not available.

Adâncimea zapezii

Not available.

Earthquake Activity

Oraş Distance Mag. Time & Date
No recent earthquake activity has been reported nearby.
Minimum magnitude displayed is 2.5.

Coastal Water Temperatures

Locul Temperatura
No Stations Reporting

Nearby Weather Stations

Locaţia staţiei Temp Indicele de căldură Punctul de rouă Umiditatea Vânt Precip. Elev Actualizare Type
Sos. Gh.I.Sisesti, Bucuresti 80.1 °F 78 °F 23 °F 12% nord  la  0.0 mph 0.00 inch / hr 305 ft 5:45 PM EEST Actualizare Rapidă
Otopeni-Odai, Bucuresti 78.6 °F 81 °F 69 °F 73% ESE  la  0.0 mph 0.00 inch / hr 312 ft 5:45 PM EEST Actualizare Rapidă
Vergului, Bucuresti 80.4 °F 83 °F 68 °F 67% nord  la  0.0 mph 0.00 inch / hr 266 ft 5:45 PM EEST Actualizare Rapidă
Bucharest 80.2 °F 83 °F 69 °F 68% nord  la  0.0 mph 0.00 inch / hr 253 ft 5:45 PM EEST Normal
Fizicienilor, Bucuresti 78.8 °F 80 °F 60 °F 54% nord  la  - - / hr 213 ft 5:45 PM EEST Normal
Militari, Bucuresti 81.0 °F 84 °F 68 °F 64% NE  la  0.0 mph 0.00 inch / hr 338 ft 5:45 PM EEST Actualizare Rapidă

Show More Stations Show Fewer Stations